Time;durP1;ratioP1;P1;durP2;ratioP2;P2;SDS_P1;SDS_P2;PMS_P1;PMS_P2;Temp;Humidity;BMP_temperature;BMP_pressure;BME280_temperature;BME280_humidity;BME280_pressure;Samples;Min_cycle;Max_cycle;Signal;HPM_P1;HPM_P2
2023/04/23 00:00:18;;;;;;;159.18;52.40;;;7.40;99.90;;;;;;5070473;28;20040;-60
2023/04/23 00:02:45;;;;;;;143.15;53.05;;;;;;;;;;5063249;28;20041;-60
2023/04/23 00:05:12;;;;;;;190.55;58.70;;;7.20;99.90;;;;;;5067834;28;20493;-59
2023/04/23 00:07:38;;;;;;;220.95;62.30;;;7.10;99.90;;;;;;5062716;28;20041;-60
2023/04/23 00:10:06;;;;;;;150.43;50.95;;;;;;;;;;5070611;28;20086;-60
2023/04/23 00:12:33;;;;;;;131.52;47.80;;;6.80;99.90;;;;;;5070311;28;20052;-60
2023/04/23 00:14:59;;;;;;;146.23;52.42;;;7.10;99.90;;;;;;5069500;28;20112;-58
2023/04/23 00:17:25;;;;;;;107.85;45.55;;;;;;;;;;5049213;28;20163;-60
2023/04/23 00:19:50;;;;;;;130.43;50.38;;;6.80;99.90;;;;;;5066454;28;20044;-60
2023/04/23 00:22:16;;;;;;;155.32;53.45;;;6.80;99.90;;;;;;5069998;28;20040;-60
2023/04/23 00:24:42;;;;;;;154.63;53.40;;;7.00;99.90;;;;;;5063063;28;20040;-58
2023/04/23 00:27:08;;;;;;;140.38;51.95;;;7.10;99.90;;;;;;5068227;28;20498;-59
2023/04/23 00:29:34;;;;;;;155.00;54.53;;;6.30;99.90;;;;;;5070208;28;20032;-60
2023/04/23 00:32:00;;;;;;;106.10;44.35;;;7.00;99.90;;;;;;5070042;28;20356;-60
2023/04/23 00:34:26;;;;;;;102.22;44.55;;;6.70;99.90;;;;;;5070053;28;20020;-60
2023/04/23 00:36:51;;;;;;;133.00;48.88;;;6.50;99.90;;;;;;5070412;28;20119;-60
2023/04/23 00:39:17;;;;;;;111.68;48.15;;;6.80;99.90;;;;;;5075970;28;20564;-60
2023/04/23 00:41:43;;;;;;;108.47;44.95;;;7.00;99.90;;;;;;5069678;28;20114;-59
2023/04/23 00:44:09;;;;;;;140.25;50.10;;;;;;;;;;5069837;28;20044;-60
2023/04/23 00:46:36;;;;;;;163.77;55.63;;;6.70;99.90;;;;;;5061865;28;20486;-60
2023/04/23 00:49:02;;;;;;;227.52;64.60;;;7.30;99.90;;;;;;5068331;28;20425;-59
2023/04/23 00:51:28;;;;;;;244.10;64.75;;;7.30;99.90;;;;;;5070062;28;20119;-60
2023/04/23 00:53:55;;;;;;;290.85;68.05;;;;;;;;;;5069924;28;20037;-60
2023/04/23 00:56:22;;;;;;;166.95;50.97;;;7.20;99.90;;;;;;5066288;28;20037;-59
2023/04/23 00:58:50;;;;;;;208.52;61.72;;;;;;;;;;5066757;28;20043;-59
2023/04/23 01:01:19;;;;;;;315.48;76.18;;;7.00;99.90;;;;;;5069369;28;20379;-60
2023/04/23 01:03:47;;;;;;;284.13;74.40;;;6.80;99.90;;;;;;5068867;28;20033;-60
2023/04/23 01:06:13;;;;;;;225.65;66.70;;;7.10;99.90;;;;;;5067216;28;20040;-60
2023/04/23 01:08:40;;;;;;;178.52;60.45;;;;;;;;;;5064038;28;20398;-59
2023/04/23 01:11:06;;;;;;;149.20;53.60;;;7.20;99.90;;;;;;5065475;28;20490;-59
2023/04/23 01:13:33;;;;;;;167.93;56.03;;;7.00;99.90;;;;;;5069155;28;20037;-60
2023/04/23 01:15:58;;;;;;;202.43;64.22;;;6.90;99.90;;;;;;5066799;28;20068;-58
2023/04/23 01:18:24;;;;;;;153.27;56.63;;;6.80;99.90;;;;;;5064624;28;20060;-60
2023/04/23 01:20:50;;;;;;;158.05;58.33;;;;;;;;;;5065849;28;20044;-60
2023/04/23 01:23:16;;;;;;;148.55;55.50;;;6.90;99.90;;;;;;5069256;28;20382;-59
2023/04/23 01:25:42;;;;;;;158.30;55.50;;;6.80;99.90;;;;;;5069275;28;20040;-59
2023/04/23 01:28:09;;;;;;;170.98;60.58;;;;;;;;;;5069184;28;20047;-57
2023/04/23 01:30:35;;;;;;;146.60;51.10;;;;;;;;;;5068415;28;20033;-58
2023/04/23 01:33:01;;;;;;;184.93;63.42;;;;;;;;;;5069270;28;20386;-58
2023/04/23 01:35:28;;;;;;;145.43;54.90;;;6.90;99.90;;;;;;5063130;28;20040;-58
2023/04/23 01:37:55;;;;;;;158.80;56.83;;;6.80;99.90;;;;;;5056459;28;20036;-58
2023/04/23 01:40:21;;;;;;;157.38;59.30;;;6.80;99.90;;;;;;5067928;28;20047;-58
2023/04/23 01:42:47;;;;;;;140.48;53.95;;;6.60;99.90;;;;;;5066208;28;20444;-57
2023/04/23 01:45:13;;;;;;;134.20;56.03;;;6.70;99.90;;;;;;5069298;28;20124;-59
2023/04/23 01:47:40;;;;;;;132.75;50.40;;;7.00;99.90;;;;;;5066501;28;20115;-59
2023/04/23 01:50:07;;;;;;;161.35;58.88;;;7.00;99.90;;;;;;5062775;28;20052;-59
2023/04/23 01:52:33;;;;;;;181.65;62.15;;;6.50;99.90;;;;;;5069108;28;20080;-59
2023/04/23 01:54:58;;;;;;;177.27;63.05;;;6.20;99.90;;;;;;5067994;28;20430;-59
2023/04/23 01:57:25;;;;;;;212.13;69.32;;;6.70;99.90;;;;;;5068107;28;20185;-60
2023/04/23 01:59:57;;;;;;;263.75;77.93;;;6.40;99.90;;;;;;5068722;28;20143;-60
2023/04/23 02:02:24;;;;;;;300.52;83.15;;;6.80;99.90;;;;;;5068387;28;20052;-60
2023/04/23 02:04:52;;;;;;;152.02;58.92;;;6.50;99.90;;;;;;5067812;28;20080;-59
2023/04/23 02:07:17;;;;;;;195.82;64.60;;;6.30;99.90;;;;;;5060473;28;20135;-59
2023/04/23 02:09:43;;;;;;;204.20;66.28;;;6.50;99.90;;;;;;5069150;28;20124;-58
2023/04/23 02:12:09;;;;;;;227.00;72.68;;;6.20;99.90;;;;;;5068546;28;20052;-59
2023/04/23 02:14:34;;;;;;;386.10;99.65;;;6.40;99.90;;;;;;5069248;28;20037;-59
2023/04/23 02:17:00;;;;;;;183.23;64.07;;;6.60;99.90;;;;;;5066708;28;20036;-60
2023/04/23 02:19:26;;;;;;;258.35;80.22;;;6.60;99.90;;;;;;5063759;28;20029;-59
2023/04/23 02:21:52;;;;;;;245.07;79.90;;;5.90;99.90;;;;;;5060649;28;20049;-59
2023/04/23 02:24:18;;;;;;;182.88;66.65;;;;;;;;;;5067755;28;20044;-60
2023/04/23 02:26:44;;;;;;;160.50;58.08;;;6.20;99.90;;;;;;5071012;28;20307;-59
2023/04/23 02:29:09;;;;;;;285.65;86.28;;;6.20;99.90;;;;;;5072512;28;20127;-59
2023/04/23 02:31:35;;;;;;;235.90;72.75;;;5.70;99.90;;;;;;5073119;28;20059;-60
2023/04/23 02:34:01;;;;;;;171.93;60.38;;;6.10;99.90;;;;;;5064496;28;20040;-60
2023/04/23 02:36:29;;;;;;;453.15;111.07;;;;;;;;;;5072190;28;20032;-58
2023/04/23 02:38:55;;;;;;;207.98;68.93;;;6.00;99.90;;;;;;5066098;28;20048;-60
2023/04/23 02:41:21;;;;;;;263.45;79.30;;;5.60;99.90;;;;;;5068590;28;20040;-59
2023/04/23 02:43:47;;;;;;;234.40;72.15;;;;;;;;;;5059688;28;20041;-60
2023/04/23 02:46:12;;;;;;;247.25;74.78;;;6.90;99.90;;;;;;5069543;28;20047;-58
2023/04/23 02:48:40;;;;;;;480.73;114.70;;;6.60;99.90;;;;;;5065962;28;20036;-60
2023/04/23 02:51:08;;;;;;;345.58;89.90;;;6.60;99.90;;;;;;5069396;28;20032;-59
2023/04/23 02:53:34;;;;;;;285.25;82.35;;;6.60;99.90;;;;;;5072004;28;20044;-59
2023/04/23 02:56:01;;;;;;;497.30;114.55;;;7.10;99.90;;;;;;5071720;28;20047;-59
2023/04/23 02:58:27;;;;;;;414.48;107.00;;;6.90;99.90;;;;;;5072049;28;20068;-60
2023/04/23 03:00:53;;;;;;;279.83;87.57;;;7.00;99.90;;;;;;5073796;28;20032;-60
2023/04/23 03:03:19;;;;;;;249.63;80.10;;;7.30;99.90;;;;;;5070310;28;20041;-60
2023/04/23 03:05:45;;;;;;;315.90;96.40;;;7.40;99.90;;;;;;5068212;28;20482;-59
2023/04/23 03:08:11;;;;;;;310.05;95.10;;;7.10;99.90;;;;;;5071925;28;20036;-59
2023/04/23 03:10:36;;;;;;;412.33;106.97;;;7.10;99.90;;;;;;5072329;28;20035;-59
2023/04/23 03:13:02;;;;;;;342.33;103.72;;;;;;;;;;5071922;28;20037;-59
2023/04/23 03:15:29;;;;;;;423.33;111.80;;;7.30;99.90;;;;;;5071371;28;20032;-60
2023/04/23 03:17:54;;;;;;;407.13;110.75;;;7.40;99.90;;;;;;5071082;28;20116;-59
2023/04/23 03:20:20;;;;;;;417.42;111.40;;;6.90;99.90;;;;;;5070663;28;20108;-59
2023/04/23 03:22:46;;;;;;;409.50;110.10;;;7.40;99.90;;;;;;5064722;28;20041;-57
2023/04/23 03:25:12;;;;;;;333.88;95.63;;;8.00;99.90;;;;;;5069661;28;20040;-60
2023/04/23 03:27:41;;;;;;;325.10;95.00;;;7.20;99.90;;;;;;5071937;28;20394;-58
2023/04/23 03:30:08;;;;;;;399.60;111.45;;;;;;;;;;5071617;28;20100;-59
2023/04/23 03:32:35;;;;;;;389.05;109.07;;;7.30;99.90;;;;;;5063423;28;20040;-60
2023/04/23 03:35:01;;;;;;;307.15;95.10;;;7.10;99.90;;;;;;5071437;28;20124;-59
2023/04/23 03:37:26;;;;;;;249.95;85.18;;;7.40;99.90;;;;;;5070816;28;20092;-59
2023/04/23 03:39:52;;;;;;;281.40;93.95;;;7.40;99.90;;;;;;5071661;28;20076;-59
2023/04/23 03:42:18;;;;;;;329.45;101.15;;;6.90;99.90;;;;;;5068905;28;20415;-59
2023/04/23 03:44:43;;;;;;;278.70;93.70;;;7.30;99.90;;;;;;5075309;28;20312;-60
2023/04/23 03:47:09;;;;;;;251.27;90.78;;;7.20;99.90;;;;;;5070691;28;20123;-60
2023/04/23 03:49:35;;;;;;;281.05;91.10;;;7.60;99.90;;;;;;5071490;28;20036;-60
2023/04/23 03:52:01;;;;;;;275.50;92.50;;;7.80;99.90;;;;;;5070203;28;20091;-59
2023/04/23 03:54:27;;;;;;;232.55;85.82;;;8.30;99.90;;;;;;5065369;28;20509;-57
2023/04/23 03:56:53;;;;;;;297.33;97.68;;;7.60;99.90;;;;;;5064064;28;20037;-59
2023/04/23 03:59:19;;;;;;;308.33;105.38;;;8.10;99.90;;;;;;5064384;28;20040;-59
2023/04/23 04:01:47;;;;;;;233.50;86.40;;;7.60;99.90;;;;;;5069978;28;20044;-60
2023/04/23 04:04:13;;;;;;;315.65;103.03;;;7.60;99.90;;;;;;5077729;28;20075;-60
2023/04/23 04:06:39;;;;;;;316.35;107.53;;;7.70;99.90;;;;;;5070979;28;20039;-60
2023/04/23 04:09:07;;;;;;;292.20;103.47;;;7.70;99.90;;;;;;5071562;28;20040;-60
2023/04/23 04:11:33;;;;;;;390.60;115.57;;;7.50;99.90;;;;;;5070504;28;20043;-58
2023/04/23 04:13:59;;;;;;;296.35;97.90;;;7.70;99.90;;;;;;5070387;28;20039;-60
2023/04/23 04:16:25;;;;;;;328.15;105.22;;;;;;;;;;5068628;28;20040;-58
2023/04/23 04:18:50;;;;;;;230.63;86.35;;;7.30;99.90;;;;;;5067130;28;20119;-60
2023/04/23 04:21:17;;;;;;;250.32;90.53;;;7.80;99.90;;;;;;5068907;28;20117;-60
2023/04/23 04:23:45;;;;;;;250.48;92.50;;;;;;;;;;5067149;28;20040;-60
2023/04/23 04:26:11;;;;;;;250.90;89.70;;;7.70;99.90;;;;;;5048177;28;20055;-59
2023/04/23 04:28:38;;;;;;;305.02;98.28;;;7.30;99.90;;;;;;5068514;28;20082;-60
2023/04/23 04:31:05;;;;;;;211.30;84.93;;;7.90;99.90;;;;;;5061220;28;20036;-59
2023/04/23 04:33:31;;;;;;;274.52;96.70;;;;;;;;;;5068945;28;20520;-60
2023/04/23 04:35:59;;;;;;;257.95;93.70;;;7.70;99.90;;;;;;5068837;28;20102;-59
2023/04/23 04:38:24;;;;;;;219.50;85.95;;;7.60;99.90;;;;;;5070011;28;20440;-60
2023/04/23 04:40:54;;;;;;;244.02;89.68;;;7.70;99.90;;;;;;5068834;28;20089;-60
2023/04/23 04:43:19;;;;;;;389.23;113.63;;;7.60;99.90;;;;;;5068887;28;20040;-60
2023/04/23 04:45:45;;;;;;;221.93;89.05;;;7.60;99.90;;;;;;5069514;28;20036;-60
2023/04/23 04:48:11;;;;;;;305.33;100.45;;;7.70;99.90;;;;;;5077806;28;20047;-60
2023/04/23 04:50:36;;;;;;;361.98;107.85;;;7.70;99.90;;;;;;5069431;28;20414;-60
2023/04/23 04:53:02;;;;;;;272.08;93.47;;;7.80;99.90;;;;;;5062880;28;20410;-59
2023/04/23 04:55:28;;;;;;;248.60;90.63;;;7.60;99.90;;;;;;5068115;28;20052;-60
2023/04/23 04:57:54;;;;;;;208.55;78.20;;;8.10;99.90;;;;;;5052242;28;20562;-60
2023/04/23 05:00:28;;;;;;;352.50;100.43;;;7.60;99.90;;;;;;5045771;28;20528;-60
2023/04/23 05:02:57;;;;;;;321.30;94.35;;;8.00;99.90;;;;;;5068304;28;20127;-60
2023/04/23 05:05:25;;;;;;;212.05;80.35;;;7.50;99.90;;;;;;5067500;28;20124;-60
2023/04/23 05:07:53;;;;;;;231.27;82.38;;;8.60;99.90;;;;;;5051868;28;20701;-60
2023/04/23 05:10:19;;;;;;;171.60;71.65;;;7.80;99.90;;;;;;5069377;28;20040;-60
2023/04/23 05:12:45;;;;;;;284.33;92.90;;;7.50;99.90;;;;;;5061555;28;20047;-60
2023/04/23 05:15:12;;;;;;;263.95;91.68;;;7.90;99.90;;;;;;5068987;28;20040;-59
2023/04/23 05:17:39;;;;;;;208.85;79.18;;;8.10;99.90;;;;;;5068300;28;20028;-60
2023/04/23 05:20:07;;;;;;;195.13;76.25;;;8.50;99.90;;;;;;5069525;28;20032;-60
2023/04/23 05:22:32;;;;;;;192.73;77.53;;;8.10;99.90;;;;;;5060927;28;20040;-60
2023/04/23 05:24:58;;;;;;;178.88;73.28;;;8.20;99.90;;;;;;5069172;28;20405;-60
2023/04/23 05:27:24;;;;;;;246.85;83.82;;;8.70;99.90;;;;;;5069140;28;20470;-60
2023/04/23 05:29:49;;;;;;;208.27;76.47;;;8.20;99.90;;;;;;5051341;28;20099;-60
2023/04/23 05:32:15;;;;;;;176.90;74.40;;;8.50;99.90;;;;;;5068819;28;20043;-60
2023/04/23 05:34:41;;;;;;;255.45;84.63;;;8.40;99.90;;;;;;5067250;28;20036;-59
2023/04/23 05:37:06;;;;;;;169.98;71.78;;;8.80;99.90;;;;;;5068714;28;20068;-60
2023/04/23 05:39:32;;;;;;;182.75;72.80;;;8.80;99.90;;;;;;5062136;28;20508;-59
2023/04/23 05:41:58;;;;;;;159.43;65.05;;;8.50;99.90;;;;;;5067672;28;20044;-59
2023/04/23 05:44:23;;;;;;;172.65;71.35;;;8.80;99.90;;;;;;5068765;28;20079;-59
2023/04/23 05:46:49;;;;;;;148.73;65.07;;;;;;;;;;5068950;28;20510;-60
2023/04/23 05:49:15;;;;;;;131.63;62.50;;;8.80;99.90;;;;;;5068888;28;20048;-58
2023/04/23 05:51:41;;;;;;;161.70;68.80;;;8.90;99.90;;;;;;5061054;28;20029;-60
2023/04/23 05:54:06;;;;;;;128.65;59.60;;;9.20;99.90;;;;;;5043798;28;20040;-59
2023/04/23 05:56:32;;;;;;;180.30;71.78;;;8.80;99.90;;;;;;5067497;28;20024;-59
2023/04/23 05:58:58;;;;;;;141.40;62.05;;;8.80;99.90;;;;;;5063682;28;20029;-60
2023/04/23 06:01:24;;;;;;;180.30;69.93;;;8.70;99.90;;;;;;5070394;28;20553;-60
2023/04/23 06:03:49;;;;;;;144.93;62.70;;;8.50;99.90;;;;;;5067179;28;20041;-60
2023/04/23 06:06:15;;;;;;;120.65;57.53;;;8.80;99.90;;;;;;5069777;28;20044;-60
2023/04/23 06:08:41;;;;;;;128.65;55.03;;;8.70;99.90;;;;;;5071571;28;20040;-60
2023/04/23 06:11:07;;;;;;;130.80;58.80;;;8.30;99.90;;;;;;5073035;28;20037;-59
2023/04/23 06:13:33;;;;;;;137.00;59.67;;;8.60;99.90;;;;;;5067831;28;20097;-59
2023/04/23 06:15:59;;;;;;;116.32;56.42;;;8.80;99.90;;;;;;5065087;28;20060;-60
2023/04/23 06:18:26;;;;;;;119.05;56.05;;;8.80;99.90;;;;;;5057919;28;20091;-60
2023/04/23 06:20:52;;;;;;;129.00;57.85;;;;;;;;;;5056773;28;20087;-60
2023/04/23 06:23:18;;;;;;;112.68;53.05;;;8.80;99.90;;;;;;5071529;28;20064;-58
2023/04/23 06:25:43;;;;;;;116.93;55.70;;;8.80;99.90;;;;;;5071032;28;20075;-60
2023/04/23 06:28:09;;;;;;;106.93;51.63;;;9.00;99.90;;;;;;5070402;28;20093;-60
2023/04/23 06:30:35;;;;;;;98.65;51.58;;;9.00;99.90;;;;;;5071612;28;20033;-60
2023/04/23 06:33:01;;;;;;;98.20;49.05;;;8.80;99.90;;;;;;5072428;28;20043;-60
2023/04/23 06:35:27;;;;;;;104.30;48.67;;;9.30;99.90;;;;;;5070784;28;20379;-60
2023/04/23 06:37:52;;;;;;;106.85;51.97;;;9.20;99.90;;;;;;5068174;28;20462;-59
2023/04/23 06:40:18;;;;;;;100.63;50.35;;;9.70;99.90;;;;;;5071884;28;20090;-59
2023/04/23 06:42:44;;;;;;;88.65;47.20;;;9.30;99.90;;;;;;5066533;28;20144;-60
2023/04/23 06:45:11;;;;;;;103.55;54.15;;;;;;;;;;5070277;28;20051;-60
2023/04/23 06:47:37;;;;;;;98.03;50.15;;;;;;;;;;5069090;28;20124;-60
2023/04/23 06:50:04;;;;;;;121.28;53.70;;;9.00;99.90;;;;;;5056418;28;20048;-60
2023/04/23 06:52:30;;;;;;;108.10;53.40;;;9.10;99.90;;;;;;5053394;28;20041;-59
2023/04/23 06:54:55;;;;;;;111.55;54.67;;;10.00;99.90;;;;;;5060929;28;20048;-60
2023/04/23 06:57:21;;;;;;;94.43;50.75;;;9.20;99.90;;;;;;5064466;28;20072;-60
2023/04/23 06:59:47;;;;;;;102.78;48.78;;;9.30;99.90;;;;;;5070032;28;20410;-60
2023/04/23 07:02:12;;;;;;;91.95;48.63;;;9.40;99.90;;;;;;5064769;28;20044;-60
2023/04/23 07:04:38;;;;;;;99.63;49.72;;;10.00;99.90;;;;;;5063757;28;20091;-60
2023/04/23 07:07:03;;;;;;;100.03;50.35;;;9.60;99.90;;;;;;5070773;28;20504;-60
2023/04/23 07:09:29;;;;;;;82.53;46.60;;;9.20;99.90;;;;;;5061455;28;20486;-59
2023/04/23 07:11:56;;;;;;;92.38;47.63;;;9.80;99.90;;;;;;5068057;28;20071;-60
2023/04/23 07:14:21;;;;;;;96.10;49.88;;;9.40;99.90;;;;;;5057529;28;20028;-60
2023/04/23 07:16:47;;;;;;;95.72;47.83;;;9.80;99.90;;;;;;5063344;28;20035;-60
2023/04/23 07:19:12;;;;;;;93.35;48.47;;;9.50;99.90;;;;;;5068050;28;20025;-60
2023/04/23 07:21:39;;;;;;;95.97;47.08;;;9.70;99.90;;;;;;5060695;28;20033;-60
2023/04/23 07:24:08;;;;;;;93.80;47.50;;;10.30;99.90;;;;;;5071839;28;20041;-60
2023/04/23 07:26:34;;;;;;;84.90;46.17;;;10.00;99.90;;;;;;5060398;28;20055;-59
2023/04/23 07:29:00;;;;;;;86.85;46.70;;;9.80;99.90;;;;;;5061940;28;20093;-60
2023/04/23 07:31:27;;;;;;;90.35;47.53;;;9.30;99.90;;;;;;5064378;28;20090;-59
2023/04/23 07:33:54;;;;;;;94.07;47.45;;;;;;;;;;5057363;28;20044;-60
2023/04/23 07:36:20;;;;;;;82.18;44.33;;;10.00;99.90;;;;;;5064658;28;20052;-60
2023/04/23 07:38:46;;;;;;;72.75;41.60;;;10.40;99.90;;;;;;5064911;28;20032;-60
2023/04/23 07:41:12;;;;;;;72.00;38.70;;;9.70;99.90;;;;;;5059121;28;20041;-60
2023/04/23 07:43:39;;;;;;;79.38;44.17;;;9.40;99.90;;;;;;5066341;28;20029;-59
2023/04/23 07:46:06;;;;;;;72.57;41.47;;;10.50;99.90;;;;;;5066605;28;20037;-58
2023/04/23 07:48:33;;;;;;;68.40;40.47;;;10.50;99.90;;;;;;5066170;28;20529;-60
2023/04/23 07:51:00;;;;;;;66.95;38.92;;;10.20;99.90;;;;;;5055542;28;20518;-60
2023/04/23 07:53:27;;;;;;;68.18;40.17;;;10.40;99.90;;;;;;5065683;28;20425;-60
2023/04/23 07:55:56;;;;;;;63.83;38.67;;;11.00;99.90;;;;;;5060047;28;20041;-60
2023/04/23 07:58:24;;;;;;;58.25;36.60;;;9.90;99.90;;;;;;5060497;28;20033;-60
2023/04/23 08:00:49;;;;;;;59.08;36.65;;;11.70;99.90;;;;;;5057370;28;20056;-60
2023/04/23 08:03:15;;;;;;;64.60;35.88;;;10.30;99.90;;;;;;5058485;28;20032;-60
2023/04/23 08:05:41;;;;;;;54.60;34.92;;;10.80;99.90;;;;;;5059819;28;20040;-60
2023/04/23 08:08:07;;;;;;;61.05;36.20;;;10.70;99.90;;;;;;5066570;28;20033;-60
2023/04/23 08:10:34;;;;;;;54.38;33.15;;;10.90;99.90;;;;;;5062738;28;20037;-60
2023/04/23 08:13:00;;;;;;;56.60;32.88;;;10.90;99.90;;;;;;5057119;28;20095;-58
2023/04/23 08:15:26;;;;;;;51.42;31.02;;;11.10;99.90;;;;;;5066842;28;20337;-60
2023/04/23 08:17:52;;;;;;;47.60;30.40;;;10.90;99.90;;;;;;5065231;28;20523;-60
2023/04/23 08:20:18;;;;;;;47.75;28.98;;;10.80;99.90;;;;;;5059056;28;20029;-59
2023/04/23 08:22:43;;;;;;;45.17;28.15;;;10.70;99.90;;;;;;5059926;28;20904;-59
2023/04/23 08:25:09;;;;;;;41.78;26.45;;;11.60;99.90;;;;;;5062244;28;20037;-60
2023/04/23 08:27:35;;;;;;;41.55;27.10;;;10.80;99.90;;;;;;5059931;28;20041;-59
2023/04/23 08:30:01;;;;;;;44.35;27.23;;;10.90;99.90;;;;;;5063046;28;20071;-60
2023/04/23 08:32:27;;;;;;;41.00;26.38;;;12.00;99.90;;;;;;5047271;28;20041;-59
2023/04/23 08:34:53;;;;;;;39.65;25.50;;;10.80;99.90;;;;;;5066301;28;20028;-60
2023/04/23 08:37:19;;;;;;;41.17;26.70;;;11.20;99.90;;;;;;5068995;28;20029;-58
2023/04/23 08:39:44;;;;;;;42.35;27.40;;;11.10;99.90;;;;;;5059839;28;20416;-60
2023/04/23 08:42:22;;;;;;;35.60;24.63;;;11.40;99.90;;;;;;5066785;28;20115;-59
2023/04/23 08:44:50;;;;;;;38.15;23.83;;;11.60;99.90;;;;;;5067688;28;20044;-60
2023/04/23 08:47:17;;;;;;;38.45;24.83;;;11.00;90.20;;;;;;5061400;28;20066;-59
2023/04/23 08:49:45;;;;;;;37.88;26.60;;;12.40;74.70;;;;;;5061250;28;20046;-59
2023/04/23 08:52:32;;;;;;;41.00;25.90;;;12.10;99.90;;;;;;5061312;28;20506;-58
2023/04/23 08:55:06;;;;;;;35.10;24.08;;;12.20;2.70;;;;;;5058711;28;20504;-59
2023/04/23 08:57:32;;;;;;;32.10;21.90;;;12.00;1.00;;;;;;5062565;28;20376;-60
2023/04/23 08:59:59;;;;;;;31.38;21.10;;;13.60;99.90;;;;;;5068481;28;20383;-59
2023/04/23 09:02:26;;;;;;;30.90;21.45;;;12.40;99.90;;;;;;5061623;28;20068;-60
2023/04/23 09:04:53;;;;;;;27.85;19.48;;;12.50;99.90;;;;;;5067387;28;20497;-59
2023/04/23 09:07:19;;;;;;;26.13;17.10;;;12.50;41.70;;;;;;5064942;28;20116;-60
2023/04/23 09:09:44;;;;;;;27.75;17.20;;;13.20;99.90;;;;;;5065565;28;20076;-58
2023/04/23 09:12:10;;;;;;;28.35;17.42;;;12.80;99.90;;;;;;5059494;28;20132;-59
2023/04/23 09:14:36;;;;;;;21.58;15.48;;;12.50;99.90;;;;;;5061265;28;20476;-58
2023/04/23 09:17:02;;;;;;;21.95;14.48;;;12.80;99.90;;;;;;5064615;28;20045;-57
2023/04/23 09:19:28;;;;;;;18.13;11.68;;;13.90;99.90;;;;;;5064796;28;20037;-59
2023/04/23 09:21:54;;;;;;;15.98;9.80;;;13.50;1.00;;;;;;5066725;28;20115;-57
2023/04/23 09:24:23;;;;;;;16.65;10.57;;;13.50;99.90;;;;;;5065677;28;20090;-59
2023/04/23 09:26:51;;;;;;;17.83;11.57;;;13.70;99.90;;;;;;5064672;28;20049;-59
2023/04/23 09:29:22;;;;;;;18.77;11.73;;;13.70;99.90;;;;;;5064715;28;20112;-59
2023/04/23 09:31:53;;;;;;;18.58;11.75;;;13.50;99.90;;;;;;5076824;28;20103;-59
2023/04/23 09:34:23;;;;;;;18.50;12.23;;;13.40;1.00;;;;;;5062315;28;20047;-59
2023/04/23 09:36:50;;;;;;;20.50;13.02;;;13.00;1.00;;;;;;5064168;28;20051;-60
2023/04/23 09:39:18;;;;;;;18.90;10.48;;;13.80;99.90;;;;;;5063165;28;20115;-60
2023/04/23 09:41:46;;;;;;;17.33;10.88;;;13.00;99.90;;;;;;5067035;28;20037;-60
2023/04/23 09:44:17;;;;;;;16.25;11.07;;;13.60;99.90;;;;;;5064409;28;20040;-59
2023/04/23 09:46:43;;;;;;;18.08;12.48;;;13.90;1.00;;;;;;5067800;28;20086;-59
2023/04/23 09:49:10;;;;;;;19.52;10.90;;;14.00;1.00;;;;;;5068972;28;20033;-58
2023/04/23 09:51:40;;;;;;;15.27;10.18;;;;;;;;;;5065304;28;20039;-60
2023/04/23 09:54:20;;;;;;;21.15;9.85;;;14.00;1.00;;;;;;5069065;28;20064;-59
2023/04/23 09:56:52;;;;;;;14.57;8.57;;;14.00;99.90;;;;;;5059352;28;20052;-58
2023/04/23 09:59:27;;;;;;;13.57;7.95;;;15.00;99.90;;;;;;5058598;28;20040;-60
2023/04/23 10:01:53;;;;;;;14.27;7.82;;;14.30;55.00;;;;;;5064500;28;20040;-60
2023/04/23 10:04:23;;;;;;;14.80;8.32;;;13.20;99.90;;;;;;5049843;28;20036;-58
2023/04/23 10:06:55;;;;;;;19.23;9.98;;;13.40;99.90;;;;;;5062922;28;20044;-58
2023/04/23 10:09:23;;;;;;;15.00;8.88;;;13.70;99.90;;;;;;5067716;28;20128;-59
2023/04/23 10:11:55;;;;;;;17.17;10.02;;;13.90;99.90;;;;;;5052452;28;20040;-58
2023/04/23 10:14:21;;;;;;;12.18;7.45;;;14.30;99.90;;;;;;5061347;28;20544;-58
2023/04/23 10:16:50;;;;;;;11.70;6.28;;;13.60;99.90;;;;;;5059096;28;20032;-60
2023/04/23 10:19:24;;;;;;;11.75;6.15;;;13.90;84.80;;;;;;5062438;28;20048;-59
2023/04/23 10:21:56;;;;;;;12.30;6.80;;;13.80;1.00;;;;;;5068257;28;20663;-60
2023/04/23 10:24:29;;;;;;;13.93;6.75;;;14.30;99.90;;;;;;5069400;28;20040;-60
2023/04/23 10:26:57;;;;;;;11.13;7.28;;;14.70;99.90;;;;;;5068698;28;20112;-60
2023/04/23 10:29:31;;;;;;;11.95;8.18;;;14.70;99.90;;;;;;5069256;28;20033;-59
2023/04/23 10:32:05;;;;;;;9.80;6.30;;;14.70;99.90;;;;;;5061084;28;20051;-58
2023/04/23 10:34:31;;;;;;;11.52;7.20;;;15.30;99.90;;;;;;5068595;28;20043;-60
2023/04/23 10:36:58;;;;;;;13.02;7.22;;;13.80;99.90;;;;;;5068671;28;20032;-59
2023/04/23 10:39:30;;;;;;;12.77;8.30;;;14.50;99.90;;;;;;5068958;28;20486;-59
2023/04/23 10:41:57;;;;;;;13.98;8.73;;;14.10;99.90;;;;;;5068685;28;20028;-60
2023/04/23 10:44:37;;;;;;;10.98;5.97;;;14.70;1.00;;;;;;5069170;28;20036;-59
2023/04/23 10:47:04;;;;;;;11.07;5.75;;;14.40;99.90;;;;;;5067941;28;20555;-60
2023/04/23 10:49:31;;;;;;;10.38;5.47;;;14.40;99.90;;;;;;5072285;28;20520;-60
2023/04/23 10:51:58;;;;;;;9.25;5.55;;;14.80;99.90;;;;;;5068879;28;20039;-60
2023/04/23 10:54:31;;;;;;;10.27;5.13;;;14.70;99.90;;;;;;5072495;28;20409;-60
2023/04/23 10:57:00;;;;;;;8.60;4.85;;;15.10;99.90;;;;;;5071118;28;20028;-59
2023/04/23 10:59:28;;;;;;;10.13;4.65;;;14.90;58.70;;;;;;5088217;28;20028;-59
2023/04/23 11:01:57;;;;;;;9.65;4.90;;;15.10;94.10;;;;;;5071773;28;20068;-60
2023/04/23 11:04:25;;;;;;;8.73;4.13;;;14.80;99.90;;;;;;5072841;28;20371;-60
2023/04/23 11:06:53;;;;;;;11.75;4.93;;;15.00;28.80;;;;;;5071085;28;20040;-59
2023/04/23 11:09:29;;;;;;;9.27;4.43;;;15.10;1.00;;;;;;5071298;28;20037;-60
2023/04/23 11:11:56;;;;;;;8.50;4.38;;;14.60;1.00;;;;;;5071694;28;20048;-59
2023/04/23 11:14:36;;;;;;;8.05;3.50;;;15.20;1.00;;;;;;5054168;28;20062;-60
2023/04/23 11:17:04;;;;;;;6.28;2.75;;;15.10;1.00;;;;;;5072626;28;20032;-60
2023/04/23 11:19:30;;;;;;;7.47;3.08;;;15.30;1.00;;;;;;5072129;28;20094;-59
2023/04/23 11:22:11;;;;;;;9.50;2.40;;;15.30;1.00;;;;;;5068068;28;20041;-60
2023/04/23 11:24:43;;;;;;;7.35;2.35;;;16.30;99.90;;;;;;5067529;28;20111;-60
2023/04/23 11:27:17;;;;;;;8.43;2.50;;;15.00;99.90;;;;;;5070099;28;20085;-61
2023/04/23 11:29:44;;;;;;;6.00;2.50;;;15.70;99.90;;;;;;5060800;28;20060;-60
2023/04/23 11:32:14;;;;;;;6.93;2.65;;;15.10;99.90;;;;;;5067681;28;20211;-60
2023/04/23 11:34:42;;;;;;;5.72;2.83;;;16.00;99.90;;;;;;5069973;28;20028;-60
2023/04/23 11:37:10;;;;;;;6.43;2.78;;;16.30;99.90;;;;;;5052460;28;20036;-60
2023/04/23 11:39:36;;;;;;;7.85;3.40;;;16.40;99.90;;;;;;5070179;28;20527;-59
2023/04/23 11:42:02;;;;;;;9.70;3.53;;;16.60;99.90;;;;;;5071405;28;20051;-60
2023/04/23 11:44:28;;;;;;;8.23;3.05;;;16.30;99.90;;;;;;5070757;28;20112;-60
2023/04/23 11:46:54;;;;;;;7.40;3.35;;;16.80;99.90;;;;;;5062763;28;20502;-60
2023/04/23 11:49:20;;;;;;;8.48;3.10;;;16.50;99.90;;;;;;5062267;28;20036;-60
2023/04/23 11:51:47;;;;;;;7.78;2.63;;;16.60;99.90;;;;;;5058602;28;20041;-60
2023/04/23 11:54:13;;;;;;;9.45;3.70;;;16.60;99.90;;;;;;5059134;28;20078;-60
2023/04/23 11:56:39;;;;;;;9.55;3.17;;;17.00;99.90;;;;;;5060055;28;20036;-61
2023/04/23 11:59:05;;;;;;;6.95;2.60;;;17.50;99.90;;;;;;5055066;28;20069;-60
2023/04/23 12:01:47;;;;;;;6.95;2.70;;;17.10;99.90;;;;;;5053066;28;20062;-61
2023/04/23 12:04:24;;;;;;;6.30;2.42;;;17.70;99.90;;;;;;5054349;28;20037;-61
2023/04/23 12:06:51;;;;;;;7.78;2.28;;;16.90;99.90;;;;;;5056355;28;20036;-61
2023/04/23 12:09:19;;;;;;;8.32;2.33;;;17.20;99.90;;;;;;5059508;28;20055;-61
2023/04/23 12:11:45;;;;;;;5.82;2.17;;;17.60;99.90;;;;;;5066545;28;20041;-61
2023/04/23 12:14:13;;;;;;;6.00;1.90;;;17.10;99.90;;;;;;5070787;28;20242;-60
2023/04/23 12:16:50;;;;;;;9.30;2.78;;;18.40;99.90;;;;;;5065917;28;20486;-60
2023/04/23 12:19:19;;;;;;;7.68;2.67;;;17.50;96.70;;;;;;5060952;28;20037;-61
2023/04/23 12:21:55;;;;;;;8.63;2.38;;;17.60;99.90;;;;;;5062947;28;20079;-61
2023/04/23 12:24:26;;;;;;;7.30;2.60;;;18.40;99.90;;;;;;5064843;28;20064;-61
2023/04/23 12:27:01;;;;;;;7.65;2.08;;;19.60;99.90;;;;;;5063523;28;20032;-60
2023/04/23 12:29:29;;;;;;;7.95;2.83;;;20.70;90.00;;;;;;5063521;28;20041;-61
2023/04/23 12:31:58;;;;;;;7.22;2.47;;;22.10;75.90;;;;;;5063400;28;20167;-61
2023/04/23 12:34:23;;;;;;;7.00;2.50;;;22.60;64.10;;;;;;5064273;28;20043;-60
2023/04/23 12:36:52;;;;;;;8.70;2.20;;;23.30;55.70;;;;;;5051865;28;20037;-61